Time;durP1;ratioP1;P1;durP2;ratioP2;P2;SDS_P1;SDS_P2;PMS_P1;PMS_P2;Temp;Humidity;BMP_temperature;BMP_pressure;BME280_temperature;BME280_humidity;BME280_pressure;Samples;Min_cycle;Max_cycle;Signal;HPM_P1;HPM_P2
2021/09/14 00:00:01;;;;;;;8.90;6.28;;;13.60;99.90;;;;;;6124896;23;20016;-76
2021/09/14 00:02:26;;;;;;;9.10;6.50;;;13.60;99.90;;;;;;6125023;23;20069;-75
2021/09/14 00:04:52;;;;;;;6.80;5.95;;;13.60;99.90;;;;;;6124069;23;19998;-76
2021/09/14 00:07:18;;;;;;;11.77;6.35;;;13.60;99.90;;;;;;6124371;23;20009;-75
2021/09/14 00:09:44;;;;;;;9.77;6.47;;;13.60;99.90;;;;;;6125934;23;20002;-76
2021/09/14 00:12:09;;;;;;;8.13;6.05;;;13.60;99.90;;;;;;6125912;23;20009;-76
2021/09/14 00:14:35;;;;;;;8.38;6.43;;;13.60;99.90;;;;;;6125609;23;20006;-76
2021/09/14 00:17:01;;;;;;;8.38;6.72;;;13.60;99.90;;;;;;6123941;23;20009;-76
2021/09/14 00:19:26;;;;;;;9.15;6.63;;;13.60;99.90;;;;;;6124221;23;20088;-76
2021/09/14 00:21:52;;;;;;;8.75;6.80;;;13.60;99.90;;;;;;6124657;23;20033;-76
2021/09/14 00:24:18;;;;;;;9.45;7.10;;;13.60;99.90;;;;;;6123848;23;20014;-76
2021/09/14 00:26:43;;;;;;;10.68;7.10;;;13.60;99.90;;;;;;6125234;23;20013;-77
2021/09/14 00:29:09;;;;;;;9.65;7.88;;;13.60;99.90;;;;;;6124944;23;20009;-76
2021/09/14 00:31:35;;;;;;;8.93;7.75;;;13.60;99.90;;;;;;6123687;23;20010;-76
2021/09/14 00:34:00;;;;;;;9.75;7.35;;;13.60;99.90;;;;;;6122409;23;20512;-76
2021/09/14 00:36:26;;;;;;;9.10;7.25;;;13.50;99.90;;;;;;6124159;23;20077;-77
2021/09/14 00:38:52;;;;;;;13.23;7.13;;;13.60;99.90;;;;;;6125784;23;20021;-76
2021/09/14 00:41:17;;;;;;;8.20;6.57;;;13.60;99.90;;;;;;6124781;23;20014;-76
2021/09/14 00:44:02;;;;;;;8.60;7.18;;;13.60;99.90;;;;;;6125509;23;20002;-76
2021/09/14 00:46:29;;;;;;;8.95;7.00;;;13.60;99.90;;;;;;6125126;23;20081;-76
2021/09/14 00:48:55;;;;;;;9.15;6.97;;;13.60;99.90;;;;;;6125155;23;20422;-74
2021/09/14 00:51:21;;;;;;;7.88;6.85;;;13.70;99.90;;;;;;6125029;23;20025;-74
2021/09/14 00:53:48;;;;;;;8.07;6.50;;;13.70;99.90;;;;;;6124117;23;20010;-74
2021/09/14 00:56:15;;;;;;;8.60;6.60;;;13.60;99.90;;;;;;6098905;23;20006;-73
2021/09/14 00:58:41;;;;;;;7.13;6.43;;;13.60;99.90;;;;;;6125008;23;20026;-74
2021/09/14 01:01:07;;;;;;;14.82;6.78;;;13.60;99.90;;;;;;6098466;23;20010;-74
2021/09/14 01:03:32;;;;;;;10.43;7.30;;;13.60;99.90;;;;;;6125356;23;20445;-74
2021/09/14 01:05:58;;;;;;;10.48;7.28;;;13.60;99.90;;;;;;6099161;23;20013;-74
2021/09/14 01:08:24;;;;;;;9.73;6.25;;;13.60;99.90;;;;;;6124371;23;20006;-74
2021/09/14 01:10:51;;;;;;;6.07;5.13;;;13.50;99.90;;;;;;6124787;23;20060;-76
2021/09/14 01:13:16;;;;;;;7.75;6.50;;;13.50;99.90;;;;;;6124402;23;20396;-76
2021/09/14 01:15:42;;;;;;;8.20;5.43;;;13.40;99.90;;;;;;6124232;23;20033;-76
2021/09/14 01:18:08;;;;;;;7.20;6.50;;;13.40;99.90;;;;;;6124983;23;20002;-76
2021/09/14 01:20:33;;;;;;;8.73;6.70;;;13.40;99.90;;;;;;6125570;23;19998;-76
2021/09/14 01:22:59;;;;;;;9.43;7.10;;;13.40;99.90;;;;;;6124355;23;20022;-76
2021/09/14 01:25:25;;;;;;;7.20;5.88;;;13.40;99.90;;;;;;6124655;23;20006;-76
2021/09/14 01:27:51;;;;;;;9.40;7.05;;;13.40;99.90;;;;;;6124480;23;20093;-74
2021/09/14 01:30:20;;;;;;;10.43;6.22;;;13.30;99.90;;;;;;6124086;23;20032;-77
2021/09/14 01:32:49;;;;;;;10.23;6.35;;;13.30;99.90;;;;;;6123175;23;20009;-77
2021/09/14 01:35:23;;;;;;;8.32;6.03;;;13.30;99.90;;;;;;6124520;23;20037;-76
2021/09/14 01:37:49;;;;;;;8.02;6.75;;;13.30;99.90;;;;;;6123124;23;20153;-76
2021/09/14 01:40:16;;;;;;;8.07;6.50;;;13.20;99.90;;;;;;6098309;23;20038;-76
2021/09/14 01:42:42;;;;;;;7.50;6.63;;;13.30;99.90;;;;;;6123569;23;20022;-75
2021/09/14 01:45:09;;;;;;;7.97;6.90;;;13.30;99.90;;;;;;6124625;23;20041;-76
2021/09/14 01:47:35;;;;;;;7.28;6.05;;;13.30;99.90;;;;;;6124482;23;20010;-75
2021/09/14 01:50:06;;;;;;;8.48;6.10;;;13.20;99.90;;;;;;6122961;23;20033;-75
2021/09/14 01:52:32;;;;;;;;;;;13.20;99.90;;;;;;6124436;23;20006;-76
2021/09/14 01:55:01;;;;;;;7.65;5.55;;;13.30;99.90;;;;;;6123885;23;20324;-76
2021/09/14 01:57:32;;;;;;;8.00;6.18;;;13.30;99.90;;;;;;6124499;23;20021;-76
2021/09/14 01:59:59;;;;;;;6.85;5.90;;;13.30;99.90;;;;;;6124734;23;20006;-76
2021/09/14 02:05:37;;;;;;;9.18;6.95;;;13.30;99.90;;;;;;6035485;23;20037;-75
2021/09/14 02:38:32;;;;;;;10.02;6.30;;;13.50;99.90;;;;;;6044478;23;20011;-75
2021/09/14 02:59:33;;;;;;;10.80;6.07;;;13.50;99.90;;;;;;6134119;23;20014;-75
2021/09/14 03:01:59;;;;;;;9.70;6.90;;;13.50;99.90;;;;;;6125539;23;20306;-74
2021/09/14 03:04:25;;;;;;;8.77;6.22;;;13.60;99.90;;;;;;6126462;23;20057;-75
2021/09/14 03:06:50;;;;;;;12.40;7.13;;;13.50;99.90;;;;;;6126390;23;20013;-75
2021/09/14 03:09:16;;;;;;;8.13;7.03;;;13.50;99.90;;;;;;6127199;23;20369;-76
2021/09/14 03:11:42;;;;;;;7.35;6.32;;;13.50;99.90;;;;;;6126272;23;20018;-76
2021/09/14 03:14:07;;;;;;;9.05;6.40;;;13.60;99.90;;;;;;6124321;23;20085;-75
2021/09/14 03:16:34;;;;;;;9.82;6.63;;;13.50;99.90;;;;;;6125539;23;20002;-76
2021/09/14 03:19:00;;;;;;;10.63;7.07;;;13.60;99.90;;;;;;6126154;23;20013;-75
2021/09/14 03:21:25;;;;;;;9.80;7.07;;;13.60;99.90;;;;;;6126035;23;20398;-76
2021/09/14 03:23:51;;;;;;;9.13;6.68;;;13.60;99.90;;;;;;6124851;23;20092;-76
2021/09/14 03:26:17;;;;;;;7.72;6.38;;;13.60;99.90;;;;;;6124834;23;20012;-76
2021/09/14 03:28:43;;;;;;;11.05;6.47;;;13.60;99.90;;;;;;6099319;23;20088;-76
2021/09/14 03:31:08;;;;;;;14.48;7.55;;;13.60;99.90;;;;;;6123359;23;20040;-77
2021/09/14 03:33:34;;;;;;;7.78;6.53;;;13.60;99.90;;;;;;6125720;23;20002;-76
2021/09/14 03:36:00;;;;;;;7.43;5.93;;;13.70;99.90;;;;;;6126324;23;20430;-76
2021/09/14 03:38:26;;;;;;;7.13;6.45;;;13.70;99.90;;;;;;6125153;23;20029;-76
2021/09/14 03:40:51;;;;;;;8.07;6.57;;;13.60;99.90;;;;;;6125521;23;20011;-76
2021/09/14 03:43:18;;;;;;;7.60;6.35;;;13.60;99.90;;;;;;6125785;23;20030;-76
2021/09/14 03:45:46;;;;;;;11.02;7.03;;;13.60;99.90;;;;;;6126043;23;20006;-76
2021/09/14 03:48:13;;;;;;;8.65;6.80;;;13.60;99.90;;;;;;6124428;23;20422;-76
2021/09/14 03:50:39;;;;;;;9.88;6.45;;;13.60;99.90;;;;;;6125326;23;20017;-76
2021/09/14 03:53:05;;;;;;;8.35;6.63;;;13.60;99.90;;;;;;6125251;23;20009;-74
2021/09/14 03:55:31;;;;;;;7.82;6.38;;;13.60;99.90;;;;;;6126036;23;20377;-76
2021/09/14 03:57:56;;;;;;;8.57;6.65;;;13.60;99.90;;;;;;6125383;23;20089;-76
2021/09/14 04:00:22;;;;;;;10.52;6.75;;;13.60;99.90;;;;;;6125505;23;20010;-76
2021/09/14 04:02:51;;;;;;;8.43;6.60;;;13.60;99.90;;;;;;6125078;23;20006;-76
2021/09/14 04:05:29;;;;;;;9.68;7.13;;;13.70;99.90;;;;;;6125664;23;20002;-76
2021/09/14 04:10:37;;;;;;;8.25;6.32;;;13.70;99.90;;;;;;6134526;23;20018;-75
2021/09/14 04:13:04;;;;;;;9.70;7.68;;;13.70;99.90;;;;;;6124951;23;20010;-75
2021/09/14 04:15:30;;;;;;;7.78;6.22;;;13.70;99.90;;;;;;6124132;23;20062;-76
2021/09/14 04:17:56;;;;;;;9.07;6.18;;;13.70;99.90;;;;;;6125332;23;20033;-76
2021/09/14 04:20:21;;;;;;;6.80;5.32;;;13.70;99.90;;;;;;6125269;23;20334;-75
2021/09/14 04:22:47;;;;;;;13.20;7.45;;;13.70;99.90;;;;;;6124628;23;20021;-75
2021/09/14 04:25:13;;;;;;;6.45;5.85;;;13.70;99.90;;;;;;6124446;23;20013;-75
2021/09/14 04:27:39;;;;;;;7.53;6.25;;;13.70;99.90;;;;;;6125702;23;20006;-75
2021/09/14 04:30:06;;;;;;;9.52;6.75;;;13.70;99.90;;;;;;6125131;23;20345;-74
2021/09/14 04:32:32;;;;;;;10.43;6.60;;;13.80;99.90;;;;;;6125814;23;20053;-74
2021/09/14 04:34:58;;;;;;;13.25;6.72;;;13.80;99.90;;;;;;6124670;23;20422;-74
2021/09/14 04:37:24;;;;;;;9.60;6.72;;;13.70;99.90;;;;;;6124231;23;20029;-74
2021/09/14 04:39:51;;;;;;;8.43;6.25;;;13.70;99.90;;;;;;6124871;23;20002;-74
2021/09/14 04:42:16;;;;;;;7.75;6.95;;;13.80;99.90;;;;;;6124996;23;20005;-74
2021/09/14 04:44:42;;;;;;;11.02;7.50;;;13.80;99.90;;;;;;6124576;23;20488;-74
2021/09/14 04:47:08;;;;;;;12.05;7.63;;;13.70;99.90;;;;;;6125301;23;20313;-74
2021/09/14 04:49:34;;;;;;;9.68;7.07;;;13.80;99.90;;;;;;6125475;23;20006;-74
2021/09/14 04:52:05;;;;;;;8.82;6.40;;;13.80;99.90;;;;;;6124327;23;20114;-74
2021/09/14 04:54:30;;;;;;;8.23;6.40;;;13.90;99.90;;;;;;6124757;23;20002;-75
2021/09/14 04:56:56;;;;;;;8.82;6.32;;;14.00;99.90;;;;;;6125360;23;20013;-75
2021/09/14 04:59:22;;;;;;;9.30;6.35;;;14.00;99.90;;;;;;6125316;23;19998;-75
2021/09/14 05:01:47;;;;;;;9.77;6.00;;;14.00;99.90;;;;;;6124143;23;20411;-75
2021/09/14 05:04:13;;;;;;;10.18;6.53;;;14.10;99.90;;;;;;6124784;23;20006;-75
2021/09/14 05:06:38;;;;;;;9.02;7.00;;;14.10;99.90;;;;;;6125004;23;20002;-75
2021/09/14 05:09:04;;;;;;;9.73;6.93;;;14.20;99.90;;;;;;6124563;23;20140;-75
2021/09/14 05:11:30;;;;;;;9.25;6.88;;;14.30;99.90;;;;;;6124860;23;20077;-75
2021/09/14 05:13:58;;;;;;;8.82;7.57;;;14.30;99.90;;;;;;6124632;23;20049;-75
2021/09/14 05:16:24;;;;;;;12.65;7.25;;;14.30;99.90;;;;;;6122857;23;20006;-75
2021/09/14 05:18:50;;;;;;;11.60;8.48;;;14.30;99.90;;;;;;6124010;23;20009;-75
2021/09/14 05:21:15;;;;;;;15.15;8.32;;;14.30;99.90;;;;;;6123925;23;20002;-75
2021/09/14 05:23:41;;;;;;;10.35;7.97;;;14.30;99.90;;;;;;6124735;23;20017;-75
2021/09/14 05:26:07;;;;;;;16.50;7.18;;;14.40;99.90;;;;;;6125127;23;20009;-74
2021/09/14 05:28:35;;;;;;;15.75;7.90;;;14.40;99.90;;;;;;6125437;23;20434;-75
2021/09/14 05:31:02;;;;;;;13.30;7.20;;;14.40;99.90;;;;;;6124781;23;20065;-75
2021/09/14 05:33:29;;;;;;;12.65;7.57;;;14.50;99.90;;;;;;6124119;23;20006;-75
2021/09/14 05:35:56;;;;;;;13.55;7.35;;;14.50;99.90;;;;;;6125221;23;20424;-75
2021/09/14 05:38:24;;;;;;;12.93;7.45;;;14.50;99.90;;;;;;6124352;23;20001;-75
2021/09/14 05:40:55;;;;;;;11.25;8.27;;;14.50;99.90;;;;;;6124733;23;20006;-75
2021/09/14 05:43:22;;;;;;;13.65;7.43;;;14.50;99.90;;;;;;6125229;23;20002;-75
2021/09/14 05:45:48;;;;;;;13.75;8.48;;;14.50;99.90;;;;;;6124130;23;20061;-75
2021/09/14 05:48:14;;;;;;;11.27;8.18;;;14.60;99.90;;;;;;6124921;23;20006;-75
2021/09/14 05:50:41;;;;;;;11.73;7.57;;;14.70;99.90;;;;;;6124123;23;20014;-75
2021/09/14 05:53:07;;;;;;;12.23;8.25;;;14.70;99.90;;;;;;6096400;23;20002;-76
2021/09/14 05:55:36;;;;;;;11.80;7.97;;;14.80;99.90;;;;;;6124067;23;20006;-75
2021/09/14 05:58:02;;;;;;;9.82;7.43;;;14.90;99.90;;;;;;6124680;23;20306;-77
2021/09/14 06:00:27;;;;;;;12.02;8.13;;;14.90;99.90;;;;;;6122260;23;20006;-75
2021/09/14 06:02:53;;;;;;;8.57;7.60;;;15.00;99.90;;;;;;6123442;23;20448;-74
2021/09/14 06:05:19;;;;;;;15.00;8.25;;;15.10;99.90;;;;;;6122900;23;20334;-74
2021/09/14 06:07:45;;;;;;;12.68;8.38;;;15.10;99.90;;;;;;6126025;23;20385;-74
2021/09/14 06:10:11;;;;;;;13.27;8.15;;;15.10;99.90;;;;;;6125987;23;20014;-74
2021/09/14 06:12:37;;;;;;;12.55;9.45;;;15.20;99.90;;;;;;6126952;23;20721;-73
2021/09/14 06:15:03;;;;;;;17.38;9.10;;;15.30;99.90;;;;;;6127170;23;20437;-74
2021/09/14 06:17:29;;;;;;;14.93;9.13;;;15.40;99.90;;;;;;6127211;23;20504;-72
2021/09/14 06:19:55;;;;;;;12.45;9.00;;;15.40;99.90;;;;;;6126836;23;20061;-74
2021/09/14 06:22:21;;;;;;;10.55;8.70;;;15.50;99.90;;;;;;6126017;23;20002;-74
2021/09/14 06:24:47;;;;;;;9.52;8.23;;;15.60;99.90;;;;;;6126641;23;20046;-74
2021/09/14 06:27:14;;;;;;;12.48;7.95;;;15.70;99.90;;;;;;6126412;23;20009;-73
2021/09/14 06:29:40;;;;;;;15.00;8.00;;;15.80;99.90;;;;;;6127440;23;20508;-74
2021/09/14 06:32:07;;;;;;;11.57;8.65;;;15.80;99.90;;;;;;6125739;23;20061;-76
2021/09/14 06:34:33;;;;;;;14.65;8.00;;;15.90;99.90;;;;;;6123471;23;20001;-74
2021/09/14 06:36:59;;;;;;;9.70;8.23;;;16.00;99.90;;;;;;6126336;23;20073;-74
2021/09/14 06:39:25;;;;;;;12.25;7.00;;;16.10;99.90;;;;;;6126493;23;20009;-74
2021/09/14 06:41:51;;;;;;;11.68;8.05;;;16.10;99.90;;;;;;6126601;23;20089;-74
2021/09/14 06:44:17;;;;;;;24.13;7.85;;;16.20;99.90;;;;;;6126370;23;20446;-74
2021/09/14 06:46:42;;;;;;;10.18;6.78;;;16.30;99.90;;;;;;6126733;23;20009;-74
2021/09/14 06:49:08;;;;;;;12.57;7.15;;;16.30;99.90;;;;;;6125779;23;20006;-74
2021/09/14 06:51:34;;;;;;;9.13;6.65;;;16.30;99.90;;;;;;6126222;23;20349;-74
2021/09/14 06:54:00;;;;;;;14.13;7.18;;;16.40;99.90;;;;;;6125716;23;20341;-74
2021/09/14 06:56:26;;;;;;;14.93;8.75;;;16.40;99.90;;;;;;6120142;23;20114;-74
2021/09/14 06:58:52;;;;;;;12.20;7.93;;;16.40;99.90;;;;;;6094526;23;20025;-75
2021/09/14 07:01:21;;;;;;;11.25;7.82;;;16.40;99.90;;;;;;6119217;23;21031;-74
2021/09/14 07:03:47;;;;;;;8.20;6.50;;;16.50;99.90;;;;;;6120680;23;20040;-75
2021/09/14 07:06:13;;;;;;;9.15;6.35;;;16.50;99.90;;;;;;6121449;23;20057;-74
2021/09/14 07:08:39;;;;;;;9.68;5.90;;;16.60;99.90;;;;;;6123078;23;20010;-74
2021/09/14 07:11:05;;;;;;;9.23;6.15;;;16.70;99.90;;;;;;6095038;23;20006;-74
2021/09/14 07:13:30;;;;;;;8.00;5.18;;;16.80;99.90;;;;;;6119434;23;20092;-74
2021/09/14 07:15:56;;;;;;;9.52;5.15;;;16.80;99.90;;;;;;6119095;23;20012;-74
2021/09/14 07:18:22;;;;;;;10.55;5.03;;;16.90;99.90;;;;;;6118622;23;20006;-74
2021/09/14 07:20:47;;;;;;;6.10;4.18;;;16.90;99.90;;;;;;6123322;23;20009;-75
2021/09/14 07:23:13;;;;;;;6.43;4.15;;;17.00;99.90;;;;;;6121115;23;20084;-74
2021/09/14 07:25:41;;;;;;;7.47;4.55;;;17.20;99.90;;;;;;6116604;23;20354;-74
2021/09/14 07:28:10;;;;;;;6.82;4.80;;;17.10;99.90;;;;;;6118486;23;20083;-74
2021/09/14 07:30:37;;;;;;;7.25;3.90;;;17.10;99.90;;;;;;6116695;23;20017;-76
2021/09/14 07:33:03;;;;;;;8.63;4.80;;;17.30;99.90;;;;;;6095571;23;20141;-75
2021/09/14 07:35:30;;;;;;;7.25;4.72;;;17.40;99.90;;;;;;6109856;23;20005;-74
2021/09/14 07:37:56;;;;;;;7.45;4.68;;;17.50;99.90;;;;;;6115489;23;20113;-74
2021/09/14 07:40:23;;;;;;;5.90;4.15;;;17.70;99.90;;;;;;6118703;23;20081;-75
2021/09/14 07:42:48;;;;;;;8.88;4.22;;;17.80;99.90;;;;;;6121437;23;20010;-74
2021/09/14 07:45:14;;;;;;;8.70;4.47;;;17.90;99.90;;;;;;6091263;23;20311;-75
2021/09/14 07:47:40;;;;;;;5.55;3.50;;;18.00;99.90;;;;;;6121176;23;20001;-75
2021/09/14 07:50:06;;;;;;;4.82;3.33;;;18.10;99.90;;;;;;6111215;23;20021;-74
2021/09/14 07:52:32;;;;;;;7.47;3.70;;;18.20;99.90;;;;;;6117676;23;20084;-74
2021/09/14 07:54:57;;;;;;;5.20;2.60;;;18.20;99.90;;;;;;6112999;23;20002;-74
2021/09/14 07:57:23;;;;;;;4.63;2.53;;;18.30;99.90;;;;;;6119294;23;20041;-75
2021/09/14 07:59:49;;;;;;;4.15;2.90;;;18.30;99.90;;;;;;6112771;23;20133;-74
2021/09/14 08:02:14;;;;;;;3.75;2.60;;;18.20;99.90;;;;;;6091673;23;20002;-75
2021/09/14 08:04:40;;;;;;;7.53;3.10;;;18.30;99.90;;;;;;6118043;23;20049;-75
2021/09/14 08:07:06;;;;;;;6.18;2.97;;;18.30;99.90;;;;;;6087548;23;20002;-76
2021/09/14 08:09:31;;;;;;;5.55;2.72;;;18.40;99.90;;;;;;6117884;23;20062;-75
2021/09/14 08:11:58;;;;;;;4.50;2.22;;;18.40;99.90;;;;;;6112913;23;20017;-75
2021/09/14 08:14:24;;;;;;;5.22;2.15;;;18.50;99.90;;;;;;6117955;23;20002;-75
2021/09/14 08:16:49;;;;;;;3.70;2.42;;;18.60;99.90;;;;;;6113691;23;20068;-75
2021/09/14 08:19:15;;;;;;;5.05;2.50;;;18.70;99.90;;;;;;6117969;23;20036;-75
2021/09/14 08:21:41;;;;;;;3.38;2.28;;;18.80;99.90;;;;;;6085339;23;20032;-76
2021/09/14 08:24:09;;;;;;;4.20;2.08;;;18.80;99.90;;;;;;6093681;23;20018;-75
2021/09/14 08:26:36;;;;;;;4.00;1.58;;;18.80;99.90;;;;;;6114105;23;20950;-75
2021/09/14 08:29:02;;;;;;;3.97;2.05;;;18.80;99.90;;;;;;6122622;23;20381;-75
2021/09/14 08:31:29;;;;;;;3.00;1.90;;;18.90;99.90;;;;;;6112109;23;20069;-75
2021/09/14 08:33:55;;;;;;;3.53;1.73;;;19.00;99.90;;;;;;6118751;23;20009;-76
2021/09/14 08:36:20;;;;;;;4.47;2.20;;;19.00;99.90;;;;;;6110579;23;20002;-76
2021/09/14 08:38:46;;;;;;;4.88;2.17;;;19.10;99.90;;;;;;6118256;23;20006;-76
2021/09/14 08:41:14;;;;;;;3.42;2.05;;;19.20;99.90;;;;;;6112187;23;20374;-75
2021/09/14 08:43:43;;;;;;;4.10;1.70;;;19.30;99.90;;;;;;6120119;23;20140;-76
2021/09/14 08:46:09;;;;;;;6.30;2.20;;;19.30;99.90;;;;;;6112498;23;20038;-75
2021/09/14 08:48:36;;;;;;;4.32;1.70;;;19.30;99.90;;;;;;6111043;23;20527;-75
2021/09/14 08:51:04;;;;;;;4.75;1.98;;;19.30;99.90;;;;;;6109866;23;20013;-75
2021/09/14 08:53:31;;;;;;;3.78;1.67;;;19.30;99.90;;;;;;6118299;23;20006;-75
2021/09/14 08:55:58;;;;;;;3.30;1.75;;;19.30;99.90;;;;;;6109485;23;20009;-75
2021/09/14 08:58:24;;;;;;;85.75;7.90;;;19.30;99.90;;;;;;6117198;23;20006;-75
2021/09/14 09:00:51;;;;;;;2.95;1.30;;;19.20;99.90;;;;;;6084696;23;20012;-76
2021/09/14 09:03:29;;;;;;;3.63;1.92;;;19.30;99.90;;;;;;6120594;23;20001;-75
2021/09/14 09:05:56;;;;;;;2.63;1.30;;;19.40;99.90;;;;;;6109562;23;20041;-76
2021/09/14 09:08:29;;;;;;;3.05;1.30;;;19.40;99.90;;;;;;6120616;23;20002;-75
2021/09/14 09:11:04;;;;;;;5.05;1.40;;;19.60;99.90;;;;;;6111519;23;20112;-76
2021/09/14 09:13:46;;;;;;;4.05;2.10;;;19.70;99.90;;;;;;6114890;23;20012;-76
2021/09/14 09:16:23;;;;;;;8.25;2.60;;;19.90;99.90;;;;;;6116178;23;20330;-76
2021/09/14 09:19:03;;;;;;;5.28;2.10;;;20.20;99.90;;;;;;6110779;23;20437;-76
2021/09/14 09:21:38;;;;;;;2.22;1.67;;;20.40;99.90;;;;;;6117262;23;20333;-75
2021/09/14 09:24:06;;;;;;;5.88;1.52;;;20.50;99.90;;;;;;6108952;23;20404;-75
2021/09/14 09:26:39;;;;;;;3.72;1.70;;;20.50;99.90;;;;;;6118915;23;20018;-75
2021/09/14 09:29:08;;;;;;;2.40;1.30;;;20.60;99.90;;;;;;6110928;23;20117;-76
2021/09/14 09:31:36;;;;;;;4.68;1.90;;;20.70;99.90;;;;;;6120451;23;20020;-76
2021/09/14 09:34:07;;;;;;;3.42;1.48;;;20.50;99.90;;;;;;6112419;23;20033;-75
2021/09/14 09:36:37;;;;;;;5.78;2.20;;;20.40;99.90;;;;;;6095233;23;20336;-76
2021/09/14 09:39:06;;;;;;;12.65;2.63;;;20.30;99.90;;;;;;6112533;23;20009;-76
2021/09/14 09:41:34;;;;;;;3.80;1.55;;;20.40;99.90;;;;;;6122368;23;20344;-75
2021/09/14 09:44:05;;;;;;;2.58;1.48;;;20.10;99.90;;;;;;6115331;23;20291;-76
2021/09/14 09:46:31;;;;;;;3.88;1.50;;;20.00;99.90;;;;;;6122715;23;20060;-76
2021/09/14 09:48:59;;;;;;;4.32;1.23;;;20.00;99.90;;;;;;6116021;23;20438;-75
2021/09/14 09:51:25;;;;;;;4.07;1.42;;;19.90;99.90;;;;;;6124322;23;20013;-75
2021/09/14 09:53:51;;;;;;;3.50;1.50;;;19.90;99.90;;;;;;6115607;23;20013;-75
2021/09/14 09:56:18;;;;;;;3.05;1.38;;;19.80;99.90;;;;;;6124608;23;20006;-75
2021/09/14 09:58:46;;;;;;;8.45;2.55;;;19.80;99.90;;;;;;6116178;23;20720;-75
2021/09/14 10:01:21;;;;;;;5.03;1.08;;;19.80;99.90;;;;;;6123271;23;20045;-75
2021/09/14 10:04:11;;;;;;;4.57;1.20;;;19.80;99.90;;;;;;6114458;23;20013;-75
2021/09/14 10:06:56;;;;;;;4.00;1.25;;;19.90;99.90;;;;;;6119460;23;20049;-76
2021/09/14 10:09:30;;;;;;;4.47;1.48;;;20.00;99.90;;;;;;6123843;23;20122;-75
2021/09/14 10:11:57;;;;;;;5.07;1.80;;;19.90;99.90;;;;;;6116445;23;20497;-75
2021/09/14 10:14:23;;;;;;;11.45;1.98;;;19.90;99.90;;;;;;6124208;23;20394;-75
2021/09/14 10:16:49;;;;;;;4.03;1.63;;;19.90;99.90;;;;;;6115673;23;20033;-75
2021/09/14 10:19:27;;;;;;;74.53;6.63;;;20.00;99.90;;;;;;6124172;23;20697;-75
2021/09/14 10:22:01;;;;;;;6.65;1.55;;;20.00;99.90;;;;;;6115855;23;20002;-75
2021/09/14 10:24:27;;;;;;;2.78;1.55;;;20.00;99.90;;;;;;6124395;23;20029;-75
2021/09/14 10:27:06;;;;;;;4.63;1.70;;;19.90;99.90;;;;;;6116260;23;20429;-75
2021/09/14 10:29:33;;;;;;;3.95;1.40;;;19.90;99.90;;;;;;6124591;23;20002;-75
2021/09/14 10:32:04;;;;;;;4.10;1.65;;;19.80;99.90;;;;;;6087928;23;20535;-75
2021/09/14 10:34:29;;;;;;;4.15;1.30;;;19.70;99.90;;;;;;6124150;23;20797;-75
2021/09/14 10:37:05;;;;;;;7.00;1.80;;;19.80;99.90;;;;;;6123516;23;20002;-75
2021/09/14 10:39:42;;;;;;;3.78;1.63;;;19.80;99.90;;;;;;6098324;23;20029;-75
2021/09/14 10:42:21;;;;;;;4.45;1.75;;;19.80;99.90;;;;;;6124999;23;20013;-75
2021/09/14 10:44:48;;;;;;;5.63;1.85;;;19.80;99.90;;;;;;6124805;23;20062;-75
2021/09/14 10:47:16;;;;;;;4.50;1.20;;;19.90;99.90;;;;;;6123365;23;20016;-75
2021/09/14 10:49:59;;;;;;;4.50;1.58;;;20.00;99.90;;;;;;6124288;23;20001;-75
2021/09/14 10:52:30;;;;;;;7.30;1.55;;;20.10;99.90;;;;;;6124135;23;20016;-75
2021/09/14 10:54:57;;;;;;;3.85;1.25;;;20.10;99.90;;;;;;6122760;23;20002;-76
2021/09/14 10:57:32;;;;;;;5.45;1.30;;;20.20;99.90;;;;;;6121465;23;20044;-75
2021/09/14 10:59:57;;;;;;;5.05;1.13;;;20.40;99.90;;;;;;6122957;23;20438;-76
2021/09/14 11:02:24;;;;;;;5.10;1.13;;;20.50;99.90;;;;;;6096617;23;20005;-76
2021/09/14 11:04:50;;;;;;;6.82;1.55;;;20.50;99.90;;;;;;6121515;23;20017;-77
2021/09/14 11:07:21;;;;;;;2.65;1.13;;;20.60;99.90;;;;;;6123137;23;20085;-75
2021/09/14 11:09:57;;;;;;;4.03;1.48;;;20.70;99.90;;;;;;6122150;23;20002;-75
2021/09/14 11:12:26;;;;;;;3.80;1.08;;;20.80;99.90;;;;;;6122690;23;20010;-74
2021/09/14 11:14:53;;;;;;;3.22;1.10;;;20.90;99.90;;;;;;6122623;23;20029;-74
2021/09/14 11:17:37;;;;;;;3.45;1.23;;;21.00;99.90;;;;;;6122482;23;20010;-75
2021/09/14 11:20:10;;;;;;;7.57;1.55;;;21.00;99.90;;;;;;6122428;23;20028;-75
2021/09/14 11:22:38;;;;;;;2.08;0.85;;;21.10;99.90;;;;;;6116640;23;20002;-75
2021/09/14 11:25:09;;;;;;;3.05;1.00;;;21.10;99.90;;;;;;6120247;23;20002;-75
2021/09/14 11:27:35;;;;;;;5.22;1.15;;;21.30;99.90;;;;;;6121706;23;20061;-75
2021/09/14 11:30:01;;;;;;;2.45;1.13;;;21.30;99.90;;;;;;6122209;23;20006;-75
2021/09/14 11:32:27;;;;;;;13.32;1.95;;;21.30;99.90;;;;;;6120721;23;20125;-75
2021/09/14 11:34:55;;;;;;;3.13;1.05;;;21.30;99.90;;;;;;6121208;23;20441;-75
2021/09/14 11:37:31;;;;;;;1.77;0.90;;;21.30;99.90;;;;;;6121965;23;20010;-75
2021/09/14 11:39:58;;;;;;;2.90;0.98;;;21.20;99.90;;;;;;6120725;23;20040;-75
2021/09/14 11:42:24;;;;;;;2.17;0.68;;;21.20;99.90;;;;;;6122741;23;20414;-75
2021/09/14 11:45:05;;;;;;;2.65;0.93;;;21.30;99.90;;;;;;6096477;23;20041;-75
2021/09/14 11:47:31;;;;;;;3.22;1.10;;;21.40;99.90;;;;;;6120889;23;20493;-75
2021/09/14 11:49:56;;;;;;;4.18;1.17;;;21.40;99.90;;;;;;6120734;23;20010;-75
2021/09/14 11:52:22;;;;;;;2.83;1.10;;;21.40;99.90;;;;;;6120695;23;20326;-75
2021/09/14 11:54:48;;;;;;;2.25;1.00;;;21.40;99.90;;;;;;6120255;23;20488;-75
2021/09/14 11:57:21;;;;;;;5.00;1.10;;;21.50;99.90;;;;;;6119712;23;20002;-75
2021/09/14 11:59:47;;;;;;;2.08;1.02;;;21.50;99.90;;;;;;6121791;23;20009;-75
2021/09/14 12:02:16;;;;;;;5.00;1.02;;;21.60;99.90;;;;;;6121855;23;20002;-74
2021/09/14 12:04:42;;;;;;;2.35;1.02;;;21.60;99.90;;;;;;6119152;23;20323;-74
2021/09/14 12:07:17;;;;;;;2.38;1.00;;;21.50;99.90;;;;;;6121406;23;20008;-74
2021/09/14 12:09:43;;;;;;;3.97;1.15;;;21.60;99.90;;;;;;6121564;23;20073;-74
2021/09/14 12:12:12;;;;;;;5.38;1.38;;;21.60;99.90;;;;;;6120136;23;20017;-74
2021/09/14 12:14:38;;;;;;;3.92;1.08;;;21.60;99.90;;;;;;6123013;23;20377;-74
2021/09/14 12:17:05;;;;;;;3.90;1.20;;;21.60;99.90;;;;;;6122373;23;20002;-74
2021/09/14 12:19:32;;;;;;;2.15;0.93;;;21.60;99.90;;;;;;6128992;23;20002;-75
2021/09/14 12:21:58;;;;;;;4.47;1.30;;;21.70;99.90;;;;;;6126690;23;20029;-74
2021/09/14 12:24:24;;;;;;;2.70;1.15;;;21.70;99.90;;;;;;6122723;23;20024;-74
2021/09/14 12:26:51;;;;;;;4.00;1.08;;;21.70;99.90;;;;;;6124604;23;20010;-74
2021/09/14 12:29:18;;;;;;;2.70;1.15;;;21.70;99.90;;;;;;6125014;23;20766;-75
2021/09/14 12:31:44;;;;;;;4.28;1.08;;;21.70;99.90;;;;;;6125931;23;20437;-75
2021/09/14 12:34:10;;;;;;;10.32;1.50;;;21.70;99.90;;;;;;6125543;23;20133;-74
2021/09/14 12:36:41;;;;;;;9.25;1.70;;;21.60;99.90;;;;;;6124777;23;20026;-75
2021/09/14 12:39:07;;;;;;;6.10;0.90;;;21.50;99.90;;;;;;6125062;23;20081;-76
2021/09/14 12:41:33;;;;;;;2.15;0.93;;;21.40;99.90;;;;;;6123253;23;20299;-74
2021/09/14 12:43:58;;;;;;;5.35;1.05;;;21.10;99.90;;;;;;6122142;23;20399;-74
2021/09/14 12:46:24;;;;;;;3.40;1.15;;;21.00;99.90;;;;;;6121581;23;20449;-74
2021/09/14 12:48:50;;;;;;;5.00;1.00;;;20.90;99.90;;;;;;6121815;23;20068;-74
2021/09/14 12:51:16;;;;;;;2.22;0.95;;;20.80;99.90;;;;;;6121682;23;20116;-75
2021/09/14 12:53:42;;;;;;;3.05;1.50;;;20.80;99.90;;;;;;6122985;23;20009;-75
2021/09/14 12:56:08;;;;;;;5.45;1.13;;;20.70;99.90;;;;;;6122936;23;20434;-75
2021/09/14 12:58:35;;;;;;;3.60;0.95;;;20.70;99.90;;;;;;6118946;23;20017;-74
2021/09/14 13:01:01;;;;;;;2.30;0.80;;;20.60;99.90;;;;;;6121828;23;20024;-72
2021/09/14 13:03:26;;;;;;;5.55;1.58;;;20.60;99.90;;;;;;6122162;23;20005;-74
2021/09/14 13:05:52;;;;;;;3.60;1.05;;;20.50;99.90;;;;;;6122087;23;20025;-73
2021/09/14 13:08:17;;;;;;;15.35;1.42;;;20.50;99.90;;;;;;6121019;23;20020;-73
2021/09/14 13:10:43;;;;;;;12.63;1.77;;;20.40;99.90;;;;;;6095760;23;20101;-73
2021/09/14 13:16:11;;;;;;;5.03;1.40;;;20.30;99.90;;;;;;6119512;23;20016;-73
2021/09/14 13:18:38;;;;;;;3.45;1.35;;;20.20;99.90;;;;;;6118727;23;20013;-73
2021/09/14 13:21:05;;;;;;;8.02;1.70;;;20.10;99.90;;;;;;6121184;23;20329;-73
2021/09/14 13:23:31;;;;;;;3.42;1.30;;;20.10;99.90;;;;;;6120854;23;20018;-73
2021/09/14 13:25:57;;;;;;;7.95;2.28;;;20.10;99.90;;;;;;6117377;23;20030;-73
2021/09/14 13:28:22;;;;;;;4.90;1.55;;;20.10;99.90;;;;;;6122233;23;20002;-71
2021/09/14 13:30:48;;;;;;;5.38;1.73;;;20.20;99.90;;;;;;6121897;23;20698;-73
2021/09/14 13:33:14;;;;;;;10.45;2.35;;;20.20;99.90;;;;;;6121003;23;20010;-73
2021/09/14 13:35:40;;;;;;;4.63;1.60;;;20.20;99.90;;;;;;6120016;23;20026;-74
2021/09/14 13:38:05;;;;;;;2.70;1.40;;;20.30;99.90;;;;;;6120477;23;20448;-74
2021/09/14 13:40:31;;;;;;;7.05;1.90;;;20.30;99.90;;;;;;6121686;23;20008;-75
2021/09/14 13:42:59;;;;;;;5.80;1.50;;;20.30;99.90;;;;;;6096421;23;20006;-74